Time;durP1;ratioP1;P1;durP2;ratioP2;P2;SDS_P1;SDS_P2;PMS_P1;PMS_P2;Temp;Humidity;BMP_temperature;BMP_pressure;BME280_temperature;BME280_humidity;BME280_pressure;Samples;Min_cycle;Max_cycle;Signal;HPM_P1;HPM_P2
2021/11/23 00:00:13;;;;;;;6.93;5.00;;;3.50;99.90;;;;;;5054243;28;20438;-83
2021/11/23 00:02:40;;;;;;;7.00;4.90;;;3.40;99.90;;;;;;5054785;28;20036;-83
2021/11/23 00:05:07;;;;;;;9.27;5.20;;;3.50;99.90;;;;;;5053645;28;20471;-83
2021/11/23 00:07:33;;;;;;;6.65;4.82;;;3.50;99.90;;;;;;5061511;28;20089;-83
2021/11/23 00:09:59;;;;;;;6.75;4.72;;;3.50;99.90;;;;;;5057086;28;20028;-83
2021/11/23 00:12:25;;;;;;;6.95;4.80;;;3.50;99.90;;;;;;5074015;28;20024;-83
2021/11/23 00:14:51;;;;;;;7.18;4.88;;;3.50;99.90;;;;;;5073362;28;20479;-83
2021/11/23 00:17:18;;;;;;;7.97;5.38;;;3.50;99.90;;;;;;5070073;28;20036;-83
2021/11/23 00:19:44;;;;;;;6.20;4.53;;;3.60;99.90;;;;;;5053646;28;20102;-83
2021/11/23 00:22:11;;;;;;;6.40;4.85;;;3.60;99.90;;;;;;5055182;28;20037;-83
2021/11/23 00:24:37;;;;;;;6.93;5.22;;;3.60;99.90;;;;;;5053221;28;20052;-83
2021/11/23 00:27:04;;;;;;;7.00;4.78;;;3.60;99.90;;;;;;5055484;28;20033;-83
2021/11/23 00:29:30;;;;;;;7.57;4.68;;;3.60;99.90;;;;;;5071944;28;20032;-83
2021/11/23 00:31:56;;;;;;;7.40;5.28;;;3.60;99.90;;;;;;5073528;28;20162;-83
2021/11/23 00:34:22;;;;;;;8.30;5.30;;;3.60;99.90;;;;;;5056920;28;20115;-83
2021/11/23 00:36:48;;;;;;;7.68;5.40;;;3.70;99.90;;;;;;5072485;28;20031;-83
2021/11/23 00:39:14;;;;;;;6.88;5.68;;;3.80;99.90;;;;;;5054518;28;20053;-83
2021/11/23 00:41:47;;;;;;;5.95;4.60;;;3.70;99.90;;;;;;5053525;28;20053;-83
2021/11/23 00:44:17;;;;;;;9.48;5.70;;;3.70;99.90;;;;;;5037426;28;20061;-83
2021/11/23 00:46:42;;;;;;;10.43;5.40;;;3.60;99.90;;;;;;5066067;28;20037;-83
2021/11/23 00:49:15;;;;;;;9.75;5.82;;;3.40;99.90;;;;;;5072666;28;20058;-83
2021/11/23 00:51:41;;;;;;;6.95;5.18;;;3.40;99.90;;;;;;5069886;28;20024;-83
2021/11/23 00:54:09;;;;;;;9.05;4.50;;;3.40;99.90;;;;;;5074232;28;20032;-83
2021/11/23 00:56:35;;;;;;;8.40;4.47;;;3.40;99.90;;;;;;5060511;28;20059;-83
2021/11/23 00:59:02;;;;;;;7.18;5.20;;;3.50;99.90;;;;;;5052827;28;20025;-83
2021/11/23 01:01:29;;;;;;;8.07;5.35;;;3.50;99.90;;;;;;5054194;28;20482;-83
2021/11/23 01:03:55;;;;;;;6.18;4.43;;;3.50;99.90;;;;;;5069576;28;20033;-83
2021/11/23 01:06:22;;;;;;;5.35;4.30;;;3.50;99.90;;;;;;5054318;28;20033;-83
2021/11/23 01:08:48;;;;;;;5.47;4.43;;;3.50;99.90;;;;;;5053008;28;20444;-83
2021/11/23 01:11:17;;;;;;;5.65;3.90;;;3.60;99.90;;;;;;5054233;28;20021;-84
2021/11/23 01:13:44;;;;;;;5.97;4.28;;;3.50;99.90;;;;;;5054218;28;20467;-83
2021/11/23 01:16:10;;;;;;;7.45;4.47;;;3.60;99.90;;;;;;5070609;28;20070;-83
2021/11/23 01:18:38;;;;;;;5.05;3.95;;;3.50;99.90;;;;;;5056003;28;20033;-84
2021/11/23 01:21:06;;;;;;;5.43;3.88;;;3.50;99.90;;;;;;5074205;28;20351;-83
2021/11/23 01:23:33;;;;;;;5.60;4.28;;;3.50;99.90;;;;;;5073636;28;20048;-84
2021/11/23 01:25:58;;;;;;;5.75;4.13;;;3.50;99.90;;;;;;5053702;28;20033;-84
2021/11/23 01:28:25;;;;;;;8.45;4.88;;;3.30;99.90;;;;;;5053588;28;20025;-84
2021/11/23 01:30:52;;;;;;;6.95;4.90;;;3.30;99.90;;;;;;5053748;28;20029;-84
2021/11/23 01:33:19;;;;;;;5.85;3.90;;;3.30;99.90;;;;;;5053358;28;20032;-84
2021/11/23 01:35:46;;;;;;;9.10;3.85;;;3.30;99.90;;;;;;5035998;28;20083;-84
2021/11/23 01:38:13;;;;;;;6.63;3.80;;;3.20;99.90;;;;;;5041487;28;20067;-85
2021/11/23 01:40:39;;;;;;;8.10;5.20;;;3.20;99.90;;;;;;5052620;28;20036;-84
2021/11/23 01:43:06;;;;;;;10.60;5.75;;;3.20;99.90;;;;;;5052059;28;20021;-84
2021/11/23 01:45:34;;;;;;;10.50;5.22;;;3.10;99.90;;;;;;5051252;28;20053;-84
2021/11/23 01:47:59;;;;;;;7.75;5.18;;;3.00;99.90;;;;;;5073428;28;20021;-84
2021/11/23 01:50:25;;;;;;;7.20;5.00;;;2.90;99.90;;;;;;5072299;28;20517;-84
2021/11/23 01:52:52;;;;;;;7.80;4.90;;;2.90;99.90;;;;;;5073549;28;20016;-84
2021/11/23 01:55:17;;;;;;;10.50;5.40;;;2.90;99.90;;;;;;5058413;28;20029;-84
2021/11/23 01:57:44;;;;;;;7.60;4.93;;;2.80;99.90;;;;;;5052417;28;20056;-84
2021/11/23 02:00:11;;;;;;;6.65;4.85;;;2.70;99.90;;;;;;5035552;28;20029;-84
2021/11/23 02:02:37;;;;;;;9.07;5.35;;;2.70;99.90;;;;;;5052327;28;20029;-83
2021/11/23 02:05:03;;;;;;;7.45;4.75;;;2.80;99.90;;;;;;5052390;28;20060;-84
2021/11/23 02:07:29;;;;;;;6.60;4.90;;;2.70;99.90;;;;;;5053263;28;20017;-83
2021/11/23 02:09:55;;;;;;;9.90;4.43;;;2.80;99.90;;;;;;5053372;28;20096;-85
2021/11/23 02:12:23;;;;;;;7.75;5.03;;;2.80;99.90;;;;;;5052020;28;20110;-84
2021/11/23 02:14:50;;;;;;;6.70;4.68;;;2.90;99.90;;;;;;5062016;28;20441;-84
2021/11/23 02:17:15;;;;;;;6.05;4.40;;;2.70;99.90;;;;;;5071691;28;20052;-84
2021/11/23 02:19:49;;;;;;;4.75;3.92;;;2.70;99.90;;;;;;5073017;28;20067;-84
2021/11/23 02:22:15;;;;;;;6.35;4.80;;;2.70;99.90;;;;;;5072400;28;20128;-84
2021/11/23 02:24:42;;;;;;;8.15;4.68;;;2.70;99.90;;;;;;5065669;28;20407;-84
2021/11/23 02:27:08;;;;;;;6.30;4.60;;;2.70;99.90;;;;;;5053014;28;20029;-84
2021/11/23 02:29:34;;;;;;;4.97;4.07;;;2.70;99.90;;;;;;5052520;28;20029;-84
2021/11/23 02:31:59;;;;;;;7.03;4.45;;;2.70;99.90;;;;;;5051717;28;20075;-84
2021/11/23 02:34:26;;;;;;;7.72;4.72;;;2.60;99.90;;;;;;5056295;28;20017;-84
2021/11/23 02:36:52;;;;;;;6.13;4.47;;;2.60;99.90;;;;;;5072071;28;20382;-84
2021/11/23 02:39:17;;;;;;;5.57;4.15;;;2.60;99.90;;;;;;5072928;28;20030;-84
2021/11/23 02:41:43;;;;;;;4.95;3.97;;;2.70;99.90;;;;;;5073031;28;20078;-84
2021/11/23 02:44:09;;;;;;;5.63;4.40;;;2.70;99.90;;;;;;5069791;28;20158;-84
2021/11/23 02:46:35;;;;;;;6.30;4.50;;;2.70;99.90;;;;;;5051456;28;20029;-84
2021/11/23 02:49:01;;;;;;;6.18;4.90;;;2.60;99.90;;;;;;5051551;28;20029;-83
2021/11/23 02:51:28;;;;;;;6.35;4.63;;;2.50;99.90;;;;;;5076221;28;20079;-85
2021/11/23 02:53:54;;;;;;;5.78;4.50;;;2.60;99.90;;;;;;5056182;28;20048;-84
2021/11/23 02:56:20;;;;;;;6.35;4.70;;;2.70;99.90;;;;;;5048122;28;20039;-84
2021/11/23 02:58:48;;;;;;;5.68;4.40;;;2.70;99.90;;;;;;5059041;28;20028;-85
2021/11/23 03:01:18;;;;;;;6.18;4.60;;;2.70;99.90;;;;;;5076209;28;20047;-85
2021/11/23 03:03:45;;;;;;;5.43;4.57;;;2.80;99.90;;;;;;5055425;28;20115;-85
2021/11/23 03:06:13;;;;;;;5.15;4.18;;;2.80;99.90;;;;;;5055175;28;20064;-84
2021/11/23 03:08:40;;;;;;;6.72;4.35;;;2.80;99.90;;;;;;5038866;28;20395;-84
2021/11/23 03:11:06;;;;;;;5.13;4.22;;;2.70;99.90;;;;;;5067230;28;20033;-84
2021/11/23 03:13:32;;;;;;;6.88;4.25;;;2.80;99.90;;;;;;5072944;28;20028;-85
2021/11/23 03:16:00;;;;;;;6.15;4.30;;;2.80;99.90;;;;;;5075384;28;20059;-85
2021/11/23 03:18:28;;;;;;;4.80;4.20;;;2.80;99.90;;;;;;5075410;28;20463;-85
2021/11/23 03:20:54;;;;;;;5.47;4.53;;;2.80;99.90;;;;;;5074363;28;20032;-85
2021/11/23 03:23:22;;;;;;;6.75;5.00;;;2.80;99.90;;;;;;5038416;28;20033;-84
2021/11/23 03:25:48;;;;;;;6.38;4.57;;;2.70;99.90;;;;;;5055987;28;20104;-85
2021/11/23 03:28:15;;;;;;;6.68;4.95;;;2.50;99.90;;;;;;5081868;28;20020;-95
2021/11/23 03:30:42;;;;;;;6.57;4.88;;;2.40;99.90;;;;;;5077206;28;20021;-96
2021/11/23 03:33:09;;;;;;;7.82;5.00;;;2.40;99.90;;;;;;5078303;28;20032;-96
2021/11/23 03:35:40;;;;;;;7.88;4.90;;;2.20;99.90;;;;;;5077966;28;20111;-96
2021/11/23 03:38:08;;;;;;;7.72;4.95;;;2.20;99.90;;;;;;5082711;28;20069;-96
2021/11/23 03:40:37;;;;;;;9.73;4.82;;;2.10;99.90;;;;;;5066430;28;20028;-96
2021/11/23 03:43:04;;;;;;;7.68;5.40;;;2.20;99.90;;;;;;5080785;28;20025;-96
2021/11/23 03:45:30;;;;;;;5.88;5.03;;;2.10;99.90;;;;;;5076938;28;20048;-96
2021/11/23 03:47:56;;;;;;;7.32;4.82;;;2.00;99.90;;;;;;5077518;28;20025;-96
2021/11/23 03:50:23;;;;;;;6.97;5.28;;;2.10;99.90;;;;;;5059791;28;20025;-94
2021/11/23 03:52:49;;;;;;;7.97;5.18;;;2.00;99.90;;;;;;5058882;28;20032;-96
2021/11/23 03:55:19;;;;;;;7.72;6.00;;;1.90;99.90;;;;;;5075199;28;20025;-96
2021/11/23 03:57:48;;;;;;;7.20;5.13;;;1.80;99.90;;;;;;5075366;28;20036;-95
2021/11/23 04:00:16;;;;;;;8.93;5.15;;;1.90;99.90;;;;;;5075357;28;20028;-96
2021/11/23 04:02:43;;;;;;;7.97;5.38;;;1.80;99.90;;;;;;5057163;28;20050;-95
2021/11/23 04:05:10;;;;;;;6.50;4.82;;;1.60;99.90;;;;;;5042297;28;20099;-88
2021/11/23 04:07:40;;;;;;;8.35;4.72;;;1.70;99.90;;;;;;5056114;28;20029;-94
2021/11/23 04:10:07;;;;;;;6.18;4.90;;;1.70;99.90;;;;;;5056442;28;20025;-94
2021/11/23 04:12:34;;;;;;;6.68;5.00;;;1.60;99.90;;;;;;5055856;28;20021;-96
2021/11/23 04:15:00;;;;;;;6.78;4.60;;;1.70;99.90;;;;;;5056062;28;20032;-96
2021/11/23 04:17:27;;;;;;;6.78;5.20;;;1.70;99.90;;;;;;5055073;28;20025;-96
2021/11/23 04:19:52;;;;;;;6.68;4.95;;;1.60;99.90;;;;;;5055791;28;20052;-96
2021/11/23 04:22:19;;;;;;;6.43;4.60;;;1.70;99.90;;;;;;5074033;28;20437;-96
2021/11/23 04:24:44;;;;;;;6.15;4.70;;;1.60;99.90;;;;;;5055894;28;20021;-96
2021/11/23 04:27:10;;;;;;;5.47;4.35;;;1.60;99.90;;;;;;5059392;28;20032;-96
2021/11/23 04:29:36;;;;;;;6.05;4.53;;;1.60;99.90;;;;;;5066062;28;20024;-96
2021/11/23 04:32:02;;;;;;;5.97;4.70;;;1.70;99.90;;;;;;5057236;28;20379;-96
2021/11/23 04:34:29;;;;;;;7.72;4.53;;;1.60;99.90;;;;;;5040510;28;20029;-96
2021/11/23 04:36:57;;;;;;;6.95;4.38;;;1.70;99.90;;;;;;5073061;28;20021;-96
2021/11/23 04:39:22;;;;;;;7.93;4.35;;;1.80;99.90;;;;;;5056163;28;20021;-96
2021/11/23 04:41:48;;;;;;;5.82;4.32;;;1.70;99.90;;;;;;5055113;28;20021;-96
2021/11/23 04:44:14;;;;;;;6.55;4.00;;;1.80;99.90;;;;;;5056137;28;20045;-96
2021/11/23 04:46:40;;;;;;;6.07;4.28;;;1.80;99.90;;;;;;5054027;28;20048;-96
2021/11/23 04:49:08;;;;;;;5.72;4.70;;;1.80;99.90;;;;;;5058864;28;20365;-96
2021/11/23 04:51:34;;;;;;;4.93;3.97;;;1.80;99.90;;;;;;5043203;28;20452;-94
2021/11/23 04:54:00;;;;;;;5.05;4.47;;;1.70;99.90;;;;;;5053932;28;20063;-95
2021/11/23 04:56:27;;;;;;;5.95;4.13;;;1.70;99.90;;;;;;5055695;28;20044;-95
2021/11/23 04:58:53;;;;;;;4.53;3.80;;;1.80;99.90;;;;;;5070810;28;20048;-95
2021/11/23 05:01:19;;;;;;;5.43;4.07;;;1.70;99.90;;;;;;5055329;28;20036;-96
2021/11/23 05:03:45;;;;;;;6.30;4.50;;;1.70;99.90;;;;;;5038034;28;20033;-95
2021/11/23 05:06:10;;;;;;;7.05;4.00;;;1.70;99.90;;;;;;5067960;28;20444;-91
2021/11/23 05:08:36;;;;;;;6.95;3.78;;;1.80;99.90;;;;;;5074177;28;20536;-96
2021/11/23 05:11:03;;;;;;;5.63;4.00;;;1.70;99.90;;;;;;5074388;28;20021;-93
2021/11/23 05:13:30;;;;;;;5.50;3.97;;;1.60;99.90;;;;;;5074785;28;20048;-95
2021/11/23 05:15:55;;;;;;;5.90;4.20;;;1.70;99.90;;;;;;5074982;28;20107;-96
2021/11/23 05:18:28;;;;;;;10.02;5.97;;;1.70;99.90;;;;;;5079365;28;20055;-96
2021/11/23 05:20:54;;;;;;;7.60;5.20;;;1.70;99.90;;;;;;5063005;28;20028;-95
2021/11/23 05:23:20;;;;;;;9.00;5.35;;;1.70;99.90;;;;;;5074527;28;20112;-96
2021/11/23 05:25:45;;;;;;;8.82;5.63;;;1.70;99.90;;;;;;5059833;28;20053;-95
2021/11/23 05:28:11;;;;;;;6.93;5.15;;;1.80;99.90;;;;;;5060534;28;20028;-95
2021/11/23 05:30:39;;;;;;;8.85;5.10;;;1.80;99.90;;;;;;5075790;28;20031;-94
2021/11/23 05:33:05;;;;;;;7.57;5.25;;;1.70;99.90;;;;;;5061482;28;20025;-94
2021/11/23 15:12:41;;;;;;;17.52;9.85;;;2.30;95.90;;;;;;5112610;27;20753;-93
2021/11/23 15:15:11;;;;;;;9.85;6.78;;;2.30;96.10;;;;;;5112225;28;20029;-92
2021/11/23 15:17:39;;;;;;;8.20;6.18;;;2.30;96.20;;;;;;5111336;28;20042;-92
2021/11/23 15:20:06;;;;;;;24.20;11.50;;;2.20;96.20;;;;;;5111406;28;20035;-93
2021/11/23 15:22:32;;;;;;;22.50;10.18;;;2.20;96.40;;;;;;5111238;28;20480;-93
2021/11/23 15:24:58;;;;;;;24.40;9.93;;;2.10;96.70;;;;;;5111823;28;20027;-93
2021/11/23 15:27:25;;;;;;;31.80;12.25;;;2.10;96.70;;;;;;5112858;28;20024;-92
2021/11/23 15:29:51;;;;;;;19.35;10.23;;;2.10;96.80;;;;;;5111310;28;20111;-92
2021/11/23 15:32:16;;;;;;;17.38;9.40;;;2.00;97.10;;;;;;5110845;28;20123;-90
2021/11/23 15:34:42;;;;;;;16.08;7.30;;;2.00;96.80;;;;;;5111020;28;20024;-89
2021/11/23 15:37:23;;;;;;;9.70;6.35;;;1.90;97.20;;;;;;5110784;28;20024;-92
2021/11/23 15:39:49;;;;;;;14.07;7.00;;;1.90;97.30;;;;;;5110636;28;20072;-92
2021/11/23 15:42:15;;;;;;;10.05;6.32;;;1.90;97.10;;;;;;5110630;28;20043;-92
2021/11/23 15:44:58;;;;;;;11.07;6.30;;;1.90;97.30;;;;;;5110447;28;20024;-91
2021/11/23 15:47:25;;;;;;;10.90;6.40;;;1.80;97.60;;;;;;5107188;28;20069;-83
2021/11/23 15:49:51;;;;;;;10.75;6.80;;;1.80;97.70;;;;;;5090246;28;20034;-83
2021/11/23 15:52:19;;;;;;;12.10;6.55;;;1.70;97.40;;;;;;5088743;28;20482;-83
2021/11/23 15:54:45;;;;;;;8.27;5.50;;;1.70;97.30;;;;;;5107176;28;20058;-83
2021/11/23 15:57:11;;;;;;;10.50;6.60;;;1.60;97.70;;;;;;5110466;28;20024;-83
2021/11/23 15:59:38;;;;;;;12.82;6.75;;;1.50;97.80;;;;;;5109079;28;20381;-83
2021/11/23 16:02:04;;;;;;;9.13;6.18;;;1.50;98.00;;;;;;5109977;28;20107;-84
2021/11/23 16:04:30;;;;;;;9.55;6.47;;;1.50;98.20;;;;;;5109059;28;20024;-83
2021/11/23 16:06:56;;;;;;;10.82;6.40;;;1.60;98.40;;;;;;5109562;28;20369;-83
2021/11/23 16:09:22;;;;;;;12.63;7.43;;;1.60;98.70;;;;;;5108950;28;20490;-84
2021/11/23 16:11:48;;;;;;;11.90;7.20;;;1.70;98.70;;;;;;5109686;28;20067;-84
2021/11/23 16:14:14;;;;;;;16.58;8.02;;;1.80;98.70;;;;;;5110278;28;20020;-83
2021/11/23 16:16:39;;;;;;;11.52;7.15;;;1.90;98.50;;;;;;5108726;28;20020;-83
2021/11/23 16:19:06;;;;;;;9.35;6.68;;;1.90;98.70;;;;;;5110180;28;20051;-92
2021/11/23 16:21:33;;;;;;;11.30;6.85;;;2.00;98.40;;;;;;5110976;28;20032;-93
2021/11/23 16:23:59;;;;;;;13.13;7.10;;;2.20;98.10;;;;;;5097853;28;20024;-91
2021/11/23 16:26:25;;;;;;;11.10;6.45;;;2.20;97.80;;;;;;5099305;28;20034;-92
2021/11/23 16:28:53;;;;;;;10.00;6.78;;;2.30;97.90;;;;;;5096863;28;20111;-88
2021/11/23 16:31:19;;;;;;;17.08;7.93;;;2.50;97.90;;;;;;5097991;28;20111;-88
2021/11/23 16:33:46;;;;;;;13.70;7.50;;;2.50;97.70;;;;;;5095985;28;20052;-88
2021/11/23 16:36:13;;;;;;;16.63;9.05;;;2.60;97.80;;;;;;5096288;28;20024;-88
2021/11/23 16:38:40;;;;;;;14.45;8.35;;;2.60;97.40;;;;;;5095869;28;20023;-88
2021/11/23 16:41:05;;;;;;;11.82;7.75;;;2.70;97.60;;;;;;5095017;28;20028;-88
2021/11/23 16:43:32;;;;;;;17.15;10.32;;;2.70;97.20;;;;;;5089843;28;20470;-88
2021/11/23 16:46:02;;;;;;;13.02;8.10;;;2.80;97.10;;;;;;5075159;28;20025;-84
2021/11/23 16:48:28;;;;;;;;;;;2.80;97.10;;;;;;5076389;28;20021;-84
2021/11/23 16:50:54;;;;;;;10.38;6.55;;;2.80;95.90;;;;;;5075862;28;20309;-84
2021/11/23 16:53:22;;;;;;;11.20;6.75;;;2.80;96.60;;;;;;5080738;28;20023;-85
2021/11/23 16:55:47;;;;;;;10.85;6.85;;;2.80;96.50;;;;;;5096102;28;20028;-84
2021/11/23 16:58:14;;;;;;;15.82;6.65;;;2.90;96.10;;;;;;5095949;28;20482;-84
2021/11/23 17:00:40;;;;;;;9.60;6.35;;;2.80;96.30;;;;;;5094986;28;20020;-90
2021/11/23 17:03:06;;;;;;;14.60;6.20;;;3.00;96.50;;;;;;5095595;28;20077;-91
2021/11/23 17:05:32;;;;;;;17.05;7.40;;;3.00;96.50;;;;;;5095323;28;20111;-91
2021/11/23 17:07:58;;;;;;;12.25;7.68;;;2.90;96.50;;;;;;5095067;28;20559;-84
2021/11/23 17:10:24;;;;;;;12.50;7.80;;;3.00;96.50;;;;;;5093876;28;20062;-82
2021/11/23 17:12:49;;;;;;;12.57;7.78;;;2.90;96.40;;;;;;5095696;28;20458;-81
2021/11/23 17:15:15;;;;;;;12.75;8.10;;;2.90;96.50;;;;;;5095443;28;20095;-88
2021/11/23 17:17:41;;;;;;;11.05;7.15;;;2.90;96.50;;;;;;5096344;28;20024;-92
2021/11/23 17:20:08;;;;;;;22.40;10.82;;;3.00;96.50;;;;;;5096591;28;20110;-91
2021/11/23 17:22:36;;;;;;;14.13;9.20;;;3.00;96.30;;;;;;5096261;28;20063;-92
2021/11/23 17:25:03;;;;;;;15.50;9.75;;;3.00;96.60;;;;;;5095309;28;20028;-93
2021/11/23 17:27:30;;;;;;;29.33;11.85;;;3.00;96.60;;;;;;5096079;28;20350;-93
2021/11/23 17:29:56;;;;;;;65.20;30.23;;;3.00;96.60;;;;;;5096239;28;20047;-93
2021/11/23 17:32:22;;;;;;;79.70;34.72;;;3.10;96.60;;;;;;5095999;28;20024;-94
2021/11/23 17:34:48;;;;;;;70.78;33.00;;;3.10;96.20;;;;;;5094710;28;20020;-93
2021/11/23 17:37:14;;;;;;;64.97;29.80;;;3.10;96.40;;;;;;5095419;28;20136;-93
2021/11/23 17:39:45;;;;;;;75.20;36.45;;;3.10;96.50;;;;;;5095041;28;20135;-93
2021/11/23 17:42:11;;;;;;;65.10;32.10;;;3.10;96.50;;;;;;5095720;28;20398;-94
2021/11/23 17:44:37;;;;;;;62.53;28.42;;;3.10;96.60;;;;;;5101110;28;20024;-93
2021/11/23 17:47:28;;;;;;;47.45;24.73;;;3.10;96.70;;;;;;5095150;28;20036;-92
2021/11/23 17:49:53;;;;;;;44.47;23.45;;;3.10;97.10;;;;;;5095363;28;20028;-93
2021/11/23 17:52:21;;;;;;;40.22;22.38;;;3.10;97.60;;;;;;5095281;28;20051;-96
2021/11/23 17:54:47;;;;;;;36.53;20.17;;;3.00;98.50;;;;;;5096983;28;20123;-95
2021/11/23 17:57:13;;;;;;;28.83;16.05;;;2.90;98.60;;;;;;5095871;28;20023;-95
2021/11/23 17:59:42;;;;;;;35.15;19.73;;;2.80;98.80;;;;;;5095424;28;20035;-93
2021/11/23 18:02:10;;;;;;;32.05;16.05;;;2.50;99.90;;;;;;5095489;28;20065;-94
2021/11/23 18:04:36;;;;;;;27.80;15.77;;;2.50;99.90;;;;;;5094947;28;20481;-93
2021/11/23 18:07:04;;;;;;;32.75;16.90;;;2.40;99.90;;;;;;5096907;28;20204;-93
2021/11/23 18:09:36;;;;;;;33.95;17.55;;;2.40;99.90;;;;;;5096171;28;20039;-94
2021/11/23 18:12:02;;;;;;;33.42;17.88;;;2.40;99.90;;;;;;5096099;28;20107;-94
2021/11/23 18:14:28;;;;;;;29.40;16.08;;;2.40;99.90;;;;;;5102941;28;20024;-94
2021/11/23 18:16:54;;;;;;;30.00;16.17;;;2.40;99.90;;;;;;5105394;28;20024;-96
2021/11/23 18:19:22;;;;;;;36.00;19.00;;;2.30;99.90;;;;;;5106876;28;20046;-96
2021/11/23 18:25:10;;;;;;;34.33;17.90;;;2.40;99.90;;;;;;5100325;28;20054;-95
2021/11/23 18:27:36;;;;;;;31.60;17.98;;;2.40;99.90;;;;;;5101017;28;20024;-95
2021/11/23 18:30:04;;;;;;;34.30;20.05;;;2.30;99.90;;;;;;5096860;28;20042;-95
2021/11/23 18:32:30;;;;;;;31.75;17.27;;;2.30;99.90;;;;;;5098369;28;20035;-95
2021/11/23 18:34:56;;;;;;;33.10;18.42;;;2.40;99.90;;;;;;5096913;28;20024;-95
2021/11/23 18:37:24;;;;;;;40.42;22.55;;;2.30;99.90;;;;;;5097739;28;20024;-96
2021/11/23 18:39:52;;;;;;;47.58;27.60;;;2.20;99.90;;;;;;5097365;28;20028;-96
2021/11/23 18:42:19;;;;;;;55.80;30.58;;;2.20;99.90;;;;;;5104850;28;20028;-96
2021/11/23 18:44:46;;;;;;;50.03;31.23;;;2.20;99.90;;;;;;5103260;28;20020;-96
2021/11/23 18:47:13;;;;;;;46.42;28.92;;;2.10;99.90;;;;;;5098924;28;20024;-96
2021/11/23 18:49:44;;;;;;;47.63;27.20;;;2.20;99.90;;;;;;5098248;28;20028;-95
2021/11/23 18:52:12;;;;;;;45.38;26.80;;;2.20;99.90;;;;;;5095105;28;20024;-96
2021/11/23 18:54:39;;;;;;;46.65;27.30;;;2.20;99.90;;;;;;5094777;28;20027;-95
2021/11/23 18:57:06;;;;;;;39.03;24.27;;;2.20;99.90;;;;;;5097247;28;20061;-95
2021/11/23 18:59:32;;;;;;;36.47;22.20;;;2.10;99.90;;;;;;5095220;28;20489;-95
2021/11/23 19:02:00;;;;;;;30.98;17.92;;;2.20;99.90;;;;;;5095073;28;20024;-96
2021/11/23 19:04:27;;;;;;;23.80;14.48;;;2.20;99.90;;;;;;5094787;28;20025;-96
2021/11/23 19:06:53;;;;;;;25.48;15.98;;;2.20;99.90;;;;;;5095118;28;20028;-95
2021/11/23 19:09:18;;;;;;;25.17;14.75;;;2.20;99.90;;;;;;5094454;28;20028;-95
2021/11/23 19:11:44;;;;;;;22.52;13.75;;;2.10;99.90;;;;;;5097793;28;20048;-96
2021/11/23 19:14:12;;;;;;;23.90;15.07;;;2.10;99.90;;;;;;5106101;28;20063;-95
2021/11/23 19:16:38;;;;;;;24.38;15.82;;;2.00;99.90;;;;;;5097087;28;20545;-91
2021/11/23 19:19:03;;;;;;;22.92;15.57;;;2.10;99.90;;;;;;5093537;28;20024;-91
2021/11/23 19:21:29;;;;;;;26.15;16.30;;;2.10;99.90;;;;;;5075747;28;20043;-91
2021/11/23 19:23:55;;;;;;;40.28;22.27;;;2.10;99.90;;;;;;5073164;28;20039;-93
2021/11/23 19:26:21;;;;;;;37.20;22.60;;;2.00;99.90;;;;;;5080059;28;20043;-94
2021/11/23 19:28:48;;;;;;;46.78;27.23;;;1.90;99.90;;;;;;5094655;28;20031;-96
2021/11/23 19:31:14;;;;;;;36.65;21.48;;;1.80;99.90;;;;;;5101111;28;20028;-96
2021/11/23 19:33:40;;;;;;;28.52;17.17;;;1.80;99.90;;;;;;5098256;28;20027;-95
2021/11/23 19:36:06;;;;;;;22.25;15.00;;;1.80;99.90;;;;;;5095526;28;20391;-94
2021/11/23 19:38:32;;;;;;;24.13;15.07;;;1.80;99.90;;;;;;5093213;28;20115;-92
2021/11/23 19:40:58;;;;;;;22.88;13.32;;;1.80;99.90;;;;;;5093115;28;20101;-90
2021/11/23 19:43:24;;;;;;;24.58;13.75;;;1.80;99.90;;;;;;5093339;28;20454;-90
2021/11/23 19:45:52;;;;;;;23.38;15.18;;;1.70;99.90;;;;;;5093075;28;20027;-91
2021/11/23 19:48:18;;;;;;;21.77;13.95;;;1.70;99.90;;;;;;5093236;28;20035;-91
2021/11/23 19:50:44;;;;;;;23.25;14.38;;;1.60;99.90;;;;;;5092943;28;20028;-90
2021/11/23 19:53:11;;;;;;;23.65;14.90;;;1.50;99.90;;;;;;5093063;28;20378;-91
2021/11/23 19:55:38;;;;;;;26.08;15.88;;;1.60;99.90;;;;;;5093036;28;20105;-91
2021/11/23 19:58:05;;;;;;;23.52;14.40;;;1.50;99.90;;;;;;5094489;28;20020;-91
2021/11/23 20:00:35;;;;;;;27.95;16.40;;;1.50;99.90;;;;;;5096885;28;20020;-90
2021/11/23 20:03:05;;;;;;;31.27;19.00;;;1.40;99.90;;;;;;5086021;28;20360;-90
2021/11/23 20:05:32;;;;;;;24.58;16.05;;;1.30;99.90;;;;;;5076676;28;20059;-91
2021/11/23 20:07:58;;;;;;;23.10;14.55;;;1.30;99.90;;;;;;5076505;28;20029;-92
2021/11/23 20:10:25;;;;;;;27.45;16.30;;;1.30;99.90;;;;;;5077069;28;20120;-92
2021/11/23 20:12:52;;;;;;;21.95;14.85;;;1.40;99.90;;;;;;5076368;28;20024;-92
2021/11/23 20:15:21;;;;;;;22.95;13.57;;;1.30;99.90;;;;;;5076380;28;20115;-93
2021/11/23 20:17:51;;;;;;;23.17;14.98;;;1.40;99.90;;;;;;5090698;28;20024;-92
2021/11/23 20:20:19;;;;;;;20.45;13.63;;;1.50;99.90;;;;;;5097010;28;20024;-94
2021/11/23 20:22:46;;;;;;;26.40;16.13;;;1.50;99.90;;;;;;5098894;28;20028;-93
2021/11/23 20:25:12;;;;;;;23.42;14.57;;;1.40;99.90;;;;;;5097524;28;20523;-94
2021/11/23 20:27:38;;;;;;;19.95;13.57;;;1.40;99.90;;;;;;5096914;28;20031;-94
2021/11/23 20:30:07;;;;;;;21.45;14.65;;;1.30;99.90;;;;;;5093037;28;20039;-92
2021/11/23 20:32:33;;;;;;;21.58;14.13;;;1.30;99.90;;;;;;5077179;28;20029;-94
2021/11/23 20:34:59;;;;;;;23.27;14.70;;;1.40;99.90;;;;;;5076038;28;20451;-94
2021/11/23 20:37:25;;;;;;;22.10;13.40;;;1.40;99.90;;;;;;5075854;28;20020;-94
2021/11/23 20:39:51;;;;;;;17.92;12.25;;;1.40;99.90;;;;;;5077469;28;20066;-96
2021/11/23 20:42:18;;;;;;;17.42;11.25;;;1.50;99.90;;;;;;5077246;28;20025;-94
2021/11/23 20:44:44;;;;;;;16.35;11.77;;;1.60;99.90;;;;;;5078105;28;20451;-94
2021/11/23 20:47:10;;;;;;;16.77;12.48;;;1.60;99.90;;;;;;5076388;28;20024;-96
2021/11/23 20:49:38;;;;;;;41.78;28.48;;;1.50;99.90;;;;;;5076738;28;20028;-95
2021/11/23 20:52:06;;;;;;;69.22;44.38;;;1.50;99.90;;;;;;5076947;28;20020;-95
2021/11/23 20:54:33;;;;;;;44.22;33.17;;;1.60;99.90;;;;;;5077390;28;20036;-95
2021/11/23 20:56:58;;;;;;;33.00;22.50;;;1.50;99.90;;;;;;5076497;28;20154;-95
2021/11/23 20:59:24;;;;;;;18.73;13.98;;;1.50;99.90;;;;;;5076883;28;20051;-94
2021/11/23 21:01:50;;;;;;;22.00;13.63;;;1.50;99.90;;;;;;5077255;28;20481;-95
2021/11/23 21:04:16;;;;;;;20.35;13.32;;;1.40;99.90;;;;;;5077646;28;20438;-96
2021/11/23 21:06:43;;;;;;;18.35;12.35;;;1.40;99.90;;;;;;5078909;28;20055;-95
2021/11/23 21:09:10;;;;;;;17.02;10.98;;;1.40;99.90;;;;;;5078126;28;20052;-96
2021/11/23 21:11:36;;;;;;;17.98;11.80;;;1.50;99.90;;;;;;5076082;28;20103;-94
2021/11/23 21:14:07;;;;;;;16.83;11.73;;;1.60;99.90;;;;;;5075360;28;20482;-94
2021/11/23 21:16:33;;;;;;;16.35;11.27;;;1.60;99.90;;;;;;5075276;28;20024;-94
2021/11/23 21:18:59;;;;;;;16.10;10.50;;;1.50;99.90;;;;;;5075264;28;20378;-94
2021/11/23 21:21:26;;;;;;;15.63;11.80;;;1.60;99.90;;;;;;5075036;28;20447;-94
2021/11/23 21:23:52;;;;;;;14.38;10.48;;;1.60;99.90;;;;;;5075095;28;20024;-94
2021/11/23 21:26:18;;;;;;;15.52;10.32;;;1.60;99.90;;;;;;5075367;28;20489;-95
2021/11/23 21:28:50;;;;;;;16.05;11.65;;;1.70;99.90;;;;;;5074998;28;20028;-94
2021/11/23 21:31:17;;;;;;;16.52;10.98;;;1.60;99.90;;;;;;5074743;28;20494;-94
2021/11/23 21:33:43;;;;;;;15.50;12.05;;;1.70;99.90;;;;;;5075686;28;20048;-95
2021/11/23 21:36:09;;;;;;;17.67;12.45;;;1.50;99.90;;;;;;5074927;28;20356;-94
2021/11/23 21:38:34;;;;;;;17.13;10.48;;;1.50;99.90;;;;;;5074716;28;20028;-94
2021/11/23 21:41:01;;;;;;;17.08;12.02;;;1.60;99.90;;;;;;5074666;28;20378;-94
2021/11/23 21:48:20;;;;;;;20.15;11.80;;;1.70;99.90;;;;;;5076000;28;20490;-92
2021/11/23 21:50:46;;;;;;;14.77;11.02;;;1.80;99.90;;;;;;5074452;28;20031;-93
2021/11/23 21:53:14;;;;;;;18.33;11.98;;;1.70;99.90;;;;;;5074440;28;20020;-93
2021/11/23 21:55:41;;;;;;;16.88;12.02;;;1.60;99.90;;;;;;5074132;28;20025;-94
2021/11/23 21:58:08;;;;;;;18.92;12.48;;;1.60;99.90;;;;;;5074384;28;20070;-93
2021/11/23 22:00:35;;;;;;;15.32;10.88;;;1.60;99.90;;;;;;5074085;28;20028;-94
2021/11/23 22:03:01;;;;;;;13.38;10.35;;;1.70;99.90;;;;;;5074172;28;20028;-93
2021/11/23 22:05:34;;;;;;;18.15;13.00;;;1.70;99.90;;;;;;5074143;28;20498;-94
2021/11/23 22:08:09;;;;;;;17.75;13.00;;;1.80;99.90;;;;;;5074064;28;20028;-94
2021/11/23 22:10:41;;;;;;;18.58;14.05;;;1.80;99.90;;;;;;5074001;28;20167;-93
2021/11/23 22:13:08;;;;;;;21.73;15.07;;;1.70;99.90;;;;;;5074046;28;20021;-95
2021/11/23 22:15:34;;;;;;;22.80;15.25;;;1.60;99.90;;;;;;5073677;28;20052;-94
2021/11/23 22:17:59;;;;;;;21.95;14.02;;;1.60;99.90;;;;;;5073791;28;20087;-95
2021/11/23 22:20:26;;;;;;;19.92;14.82;;;1.60;99.90;;;;;;5073269;28;20050;-94
2021/11/23 22:22:52;;;;;;;20.48;15.18;;;1.50;99.90;;;;;;5073779;28;20024;-95
2021/11/23 22:25:18;;;;;;;21.27;15.30;;;1.60;99.90;;;;;;5073548;28;20467;-95
2021/11/23 22:27:45;;;;;;;40.75;25.83;;;1.60;99.90;;;;;;5073861;28;20111;-95
2021/11/23 22:30:11;;;;;;;27.13;19.20;;;1.80;99.90;;;;;;5073614;28;20364;-95